Terminal Aerodrome Forecast
Issued by NWS

Home | Current Version | Previous Version | Text Only | Print | Product List | Glossary On
Versions: 1 2 3 4 5 6 7 8 9 10 11 12 13 14
000
FTUS45 KTFX 172300
TAFBZN
TAF
KBZN 172339Z 1800/1824 VRB06KT P6SM SCT060 BKN090
      TEMPO 1800/1802 24010G20KT
     FM180600 24010KT P6SM VCSH SCT040 OVC070 PROB30 1812/1818 -SHRA
      BKN025
     FM182000 28015G25KT P6SM SCT040 BKN070=

USA.gov is the U.S. government's official web portal to all federal, state and local government web resources and services.